createdAt,value
2019-02-25T00:04:18.990Z,0.50
2019-02-25T00:09:24.793Z,0.50
2019-02-25T00:14:36.951Z,0.40
2019-02-25T00:19:42.399Z,0.50
2019-02-25T00:24:48.527Z,0.50
2019-02-25T00:29:53.971Z,0.40
2019-02-25T00:34:59.562Z,0.40
2019-02-25T00:40:05.303Z,0.20
2019-02-25T00:45:10.839Z,0.30
2019-02-25T00:50:16.286Z,0.30
2019-02-25T00:55:22.087Z,0.20
2019-02-25T01:00:27.533Z,0.20
2019-02-25T01:05:32.997Z,0.20
2019-02-25T01:10:39.175Z,0.10
2019-02-25T01:15:44.962Z,0.10
2019-02-25T01:20:50.522Z,0.00
2019-02-25T01:25:55.992Z,0.00
2019-02-25T01:31:01.487Z,0.00
2019-02-25T01:36:07.375Z,0.00
2019-02-25T01:41:12.815Z,-0.10
2019-02-25T01:46:18.280Z,-0.10
2019-02-25T01:51:23.734Z,0.00
2019-02-25T01:56:29.195Z,-0.10
2019-02-25T02:01:34.658Z,-0.10
2019-02-25T02:12:00.163Z,-0.20
2019-02-25T02:17:05.953Z,-0.10
2019-02-25T02:22:12.091Z,-0.20
2019-02-25T02:27:17.541Z,-0.20
2019-02-25T02:32:23.350Z,-0.20
2019-02-25T02:37:28.834Z,-0.20
2019-02-25T02:42:34.439Z,-0.40
2019-02-25T02:47:48.971Z,-0.30
2019-02-25T02:52:54.782Z,-0.30
2019-02-25T02:58:00.266Z,-0.50
2019-02-25T03:03:05.731Z,-0.50
2019-02-25T03:08:11.554Z,-0.50
2019-02-25T03:13:17.742Z,-0.40
2019-02-25T03:18:23.195Z,-0.50
2019-02-25T03:23:28.721Z,-0.50
2019-02-25T03:28:34.212Z,-0.50
2019-02-25T03:33:39.680Z,-0.60
2019-02-25T03:38:45.166Z,-0.60
2019-02-25T03:43:50.616Z,-0.60
2019-02-25T03:48:56.063Z,-0.70
2019-02-25T03:54:02.008Z,-0.70
2019-02-25T03:59:07.843Z,-0.70
2019-02-25T04:04:13.293Z,-0.80
2019-02-25T04:09:19.804Z,-0.80
2019-02-25T04:14:25.282Z,-0.70
2019-02-25T04:19:31.271Z,-0.80
2019-02-25T04:24:36.715Z,-0.90
2019-02-25T04:29:42.509Z,-0.90
2019-02-25T04:34:48.020Z,-1.00
2019-02-25T04:39:53.494Z,-1.00
2019-02-25T04:44:59.000Z,-1.00
2019-02-25T04:50:04.816Z,-1.00
2019-02-25T04:55:10.942Z,-1.10
2019-02-25T05:00:17.661Z,-1.00
2019-02-25T05:05:23.114Z,-1.20
2019-02-25T05:10:28.570Z,-1.40
2019-02-25T05:15:34.270Z,-1.20
2019-02-25T05:20:39.755Z,-1.30
2019-02-25T05:25:45.249Z,-1.20
2019-02-25T05:30:50.728Z,-1.30
2019-02-25T05:35:56.249Z,-1.40
2019-02-25T05:41:01.826Z,-1.30
2019-02-25T05:46:07.321Z,-1.30
2019-02-25T05:51:12.854Z,-1.40
2019-02-25T05:56:18.673Z,-1.50
2019-02-25T06:01:24.239Z,-1.50
2019-02-25T06:06:29.918Z,-1.50
2019-02-25T06:11:35.370Z,-1.60
2019-02-25T06:16:40.967Z,-1.60
2019-02-25T06:21:46.438Z,-1.50
2019-02-25T06:26:52.022Z,-1.50
2019-02-25T06:31:57.510Z,-1.60
2019-02-25T06:37:02.973Z,-1.50
2019-02-25T06:42:08.427Z,-1.40
2019-02-25T06:47:13.870Z,-1.40
2019-02-25T06:52:20.114Z,-1.40
2019-02-25T06:57:25.847Z,-1.30
2019-02-25T07:02:31.627Z,-1.20
2019-02-25T07:07:42.247Z,-1.20
2019-02-25T07:12:51.762Z,-1.10
2019-02-25T07:18:08.748Z,-0.90
2019-02-25T07:23:19.323Z,-0.90
2019-02-25T07:28:30.776Z,-0.80
2019-02-25T07:33:40.419Z,-0.70
2019-02-25T07:38:52.354Z,-0.50
2019-02-25T07:44:03.014Z,-0.40
2019-02-25T07:49:21.775Z,0.00
2019-02-25T07:54:34.172Z,0.30
2019-02-25T07:59:45.729Z,0.50
2019-02-25T08:04:55.329Z,0.80
2019-02-25T08:10:40.327Z,1.00
2019-02-25T08:15:56.056Z,1.20
2019-02-25T08:21:10.558Z,1.60
2019-02-25T08:27:19.887Z,1.80
2019-02-25T08:32:35.156Z,2.10
2019-02-25T08:38:20.989Z,2.40
2019-02-25T08:43:31.185Z,2.70
2019-02-25T08:48:41.958Z,2.90
2019-02-25T08:53:48.134Z,3.20
2019-02-25T08:58:53.603Z,3.50
2019-02-25T09:03:59.107Z,3.80
2019-02-25T09:09:05.546Z,3.90
2019-02-25T09:14:11.042Z,4.30
2019-02-25T09:19:16.547Z,4.40
2019-02-25T09:24:22.006Z,4.60
2019-02-25T09:29:27.795Z,4.80
2019-02-25T09:34:33.267Z,5.10
2019-02-25T09:39:38.716Z,5.30
2019-02-25T09:44:44.583Z,5.50
2019-02-25T09:49:51.051Z,5.90
2019-02-25T09:54:56.035Z,6.30
2019-02-25T10:00:01.546Z,6.60
2019-02-25T10:05:07.667Z,7.00
2019-02-25T10:10:14.276Z,7.40
2019-02-25T10:15:20.519Z,7.70
2019-02-25T10:20:26.309Z,7.90
2019-02-25T10:25:31.816Z,8.30
2019-02-25T10:30:37.591Z,8.50
2019-02-25T10:35:43.132Z,8.90
2019-02-25T10:40:49.604Z,9.20
2019-02-25T10:45:54.264Z,9.60
2019-02-25T10:50:59.896Z,10.00
2019-02-25T10:56:23.609Z,10.40
2019-02-25T11:01:27.290Z,10.50
2019-02-25T11:06:35.625Z,10.90
2019-02-25T11:11:39.718Z,11.10
2019-02-25T11:16:46.028Z,11.50
2019-02-25T11:21:50.838Z,11.50
2019-02-25T11:26:56.948Z,11.60
2019-02-25T11:32:03.084Z,11.90
2019-02-25T11:37:09.010Z,12.10
2019-02-25T11:42:18.729Z,12.40
2019-02-25T11:47:21.211Z,12.40
2019-02-25T11:52:26.690Z,12.70
2019-02-25T11:57:32.167Z,13.10
2019-02-25T12:02:37.619Z,13.10
2019-02-25T12:07:43.446Z,13.10
2019-02-25T12:12:48.900Z,13.40
2019-02-25T12:17:59.663Z,13.80
2019-02-25T12:23:07.211Z,13.60
2019-02-25T12:28:13.966Z,13.90
2019-02-25T12:33:19.463Z,14.00
2019-02-25T12:38:27.780Z,14.40
2019-02-25T12:43:36.118Z,14.70
2019-02-25T12:48:43.301Z,14.50
2019-02-25T12:53:50.113Z,14.40
2019-02-25T12:58:55.723Z,14.80
2019-02-25T13:04:04.279Z,14.70
2019-02-25T13:09:16.739Z,14.20
2019-02-25T13:14:22.386Z,14.60
2019-02-25T13:19:28.455Z,14.60
2019-02-25T13:24:35.188Z,14.60
2019-02-25T13:35:00.266Z,14.60
2019-02-25T13:40:06.267Z,14.60
2019-02-25T13:45:12.871Z,14.80
2019-02-25T13:50:18.403Z,14.80
2019-02-25T13:55:24.035Z,14.60
2019-02-25T14:00:29.920Z,14.80
2019-02-25T14:05:36.263Z,14.80
2019-02-25T14:10:41.800Z,14.70
2019-02-25T14:15:47.407Z,14.90
2019-02-25T14:20:53.960Z,15.00
2019-02-25T14:25:59.991Z,15.10
2019-02-25T14:31:05.630Z,14.80
2019-02-25T14:36:11.422Z,14.80
2019-02-25T14:41:18.523Z,14.70
2019-02-25T14:46:24.965Z,14.60
2019-02-25T14:51:31.704Z,14.50
2019-02-25T14:56:37.424Z,14.40
2019-02-25T15:01:43.163Z,14.10
2019-02-25T15:06:48.725Z,13.90
2019-02-25T15:11:55.932Z,13.70
2019-02-25T15:17:00.384Z,13.50
2019-02-25T15:22:06.051Z,13.40
2019-02-25T15:27:12.960Z,13.30
2019-02-25T15:32:17.358Z,13.10
2019-02-25T15:37:22.919Z,12.90
2019-02-25T15:42:30.093Z,12.90
2019-02-25T15:47:34.301Z,12.80
2019-02-25T15:52:40.327Z,12.70
2019-02-25T15:57:46.278Z,12.50
2019-02-25T16:02:52.845Z,12.30
2019-02-25T16:08:00.615Z,12.20
2019-02-25T16:13:09.286Z,12.20
2019-02-25T16:18:13.776Z,12.00
2019-02-25T16:23:16.499Z,11.90
2019-02-25T16:28:22.534Z,11.70
2019-02-25T16:33:28.252Z,11.50
2019-02-25T16:38:34.635Z,11.30
2019-02-25T16:43:39.311Z,11.00
2019-02-25T16:48:46.403Z,10.80
2019-02-25T16:53:52.285Z,10.60
2019-02-25T16:58:56.743Z,10.30
2019-02-25T17:04:01.984Z,10.10
2019-02-25T17:09:09.699Z,9.90
2019-02-25T17:14:14.972Z,9.80
2019-02-25T17:19:19.661Z,9.80
2019-02-25T17:24:26.496Z,10.00
2019-02-25T17:29:31.956Z,10.10
2019-02-25T17:34:37.573Z,10.00
2019-02-25T17:39:43.254Z,9.80
2019-02-25T17:44:49.041Z,9.60
2019-02-25T17:49:56.074Z,9.70
2019-02-25T17:55:01.515Z,9.70
2019-02-25T18:00:13.219Z,9.70
2019-02-25T18:05:19.122Z,9.70
2019-02-25T18:10:25.150Z,9.70
2019-02-25T18:15:31.101Z,9.70
2019-02-25T18:20:36.603Z,9.60
2019-02-25T18:25:41.878Z,9.50
2019-02-25T18:30:47.787Z,9.50
2019-02-25T18:35:53.370Z,9.40
2019-02-25T18:41:00.381Z,9.30
2019-02-25T18:46:07.025Z,9.20
2019-02-25T18:51:10.650Z,9.10
2019-02-25T18:56:16.740Z,9.00
2019-02-25T19:01:22.388Z,8.90
2019-02-25T19:06:29.313Z,8.70
2019-02-25T19:11:33.449Z,8.80
2019-02-25T19:16:40.047Z,8.60
2019-02-25T19:21:45.746Z,8.40
2019-02-25T19:26:51.122Z,8.50
2019-02-25T19:32:00.640Z,8.40
2019-02-25T19:37:04.512Z,8.50
2019-02-25T19:42:08.749Z,8.60
2019-02-25T19:47:16.247Z,8.50
2019-02-25T19:52:20.067Z,8.40
2019-02-25T19:57:27.937Z,8.30
2019-02-25T20:02:32.898Z,8.00
2019-02-25T20:07:37.547Z,7.80
2019-02-25T20:12:43.127Z,7.60
2019-02-25T20:17:50.424Z,7.40
2019-02-25T20:22:54.242Z,7.20
2019-02-25T20:28:02.044Z,7.00
2019-02-25T20:33:06.981Z,6.90
2019-02-25T20:38:12.283Z,6.80
2019-02-25T20:43:21.831Z,6.60
2019-02-25T20:48:27.516Z,6.50
2019-02-25T20:53:33.835Z,6.30
2019-02-25T20:58:38.313Z,6.30
2019-02-25T21:03:45.770Z,6.10
2019-02-25T21:08:49.024Z,5.90
2019-02-25T21:13:54.585Z,5.90
2019-02-25T21:19:00.451Z,6.00
2019-02-25T21:24:08.684Z,5.80
2019-02-25T21:29:11.897Z,5.60
2019-02-25T21:34:19.772Z,5.40
2019-02-25T21:39:22.961Z,5.40
2019-02-25T21:44:28.944Z,5.30
2019-02-25T21:49:35.978Z,5.20
2019-02-25T21:54:39.909Z,5.00
2019-02-25T21:59:45.568Z,4.80
2019-02-25T22:04:51.840Z,4.70
2019-02-25T22:09:56.776Z,4.60
2019-02-25T22:15:02.352Z,4.50
2019-02-25T22:20:12.072Z,4.40
2019-02-25T22:25:16.175Z,4.40
2019-02-25T22:30:21.439Z,4.40
2019-02-25T22:35:27.275Z,4.30
2019-02-25T22:40:34.467Z,4.20
2019-02-25T22:45:39.712Z,4.20
2019-02-25T22:50:44.174Z,4.20
2019-02-25T22:55:50.384Z,4.10
2019-02-25T23:00:58.292Z,4.20
2019-02-25T23:06:01.883Z,4.30
2019-02-25T23:11:09.996Z,4.30
2019-02-25T23:16:13.761Z,4.40
2019-02-25T23:21:23.757Z,4.40
2019-02-25T23:26:24.252Z,4.30
2019-02-25T23:31:30.742Z,4.30
2019-02-25T23:36:40.700Z,4.20
2019-02-25T23:41:43.830Z,4.10
2019-02-25T23:46:47.353Z,4.00
2019-02-25T23:51:52.871Z,3.90
2019-02-25T23:57:00.155Z,3.80
